sensor_id;sensor_type;location;lat;lon;timestamp;P1;durP1;ratioP1;P2;durP2;ratioP2
42614;SDS011;28754;47.700;7.924;2022-09-01T00:01:50;8.60;;;5.67;;
42614;SDS011;28754;47.700;7.924;2022-09-01T00:04:38;6.80;;;4.97;;
42614;SDS011;28754;47.700;7.924;2022-09-01T00:07:25;7.32;;;5.10;;
42614;SDS011;28754;47.700;7.924;2022-09-01T00:10:17;12.63;;;5.90;;
42614;SDS011;28754;47.700;7.924;2022-09-01T00:13:04;7.70;;;6.18;;
42614;SDS011;28754;47.700;7.924;2022-09-01T00:15:52;7.57;;;4.72;;
42614;SDS011;28754;47.700;7.924;2022-09-01T00:18:39;7.43;;;5.00;;
42614;SDS011;28754;47.700;7.924;2022-09-01T00:21:29;8.18;;;5.47;;
42614;SDS011;28754;47.700;7.924;2022-09-01T00:24:21;6.25;;;5.30;;
42614;SDS011;28754;47.700;7.924;2022-09-01T00:27:08;6.05;;;4.55;;
42614;SDS011;28754;47.700;7.924;2022-09-01T00:29:55;7.30;;;5.00;;
42614;SDS011;28754;47.700;7.924;2022-09-01T00:32:41;8.40;;;5.22;;
42614;SDS011;28754;47.700;7.924;2022-09-01T00:35:31;6.85;;;5.85;;
42614;SDS011;28754;47.700;7.924;2022-09-01T00:38:18;13.05;;;4.93;;
42614;SDS011;28754;47.700;7.924;2022-09-01T00:41:05;6.93;;;4.93;;
42614;SDS011;28754;47.700;7.924;2022-09-01T00:43:59;9.13;;;5.20;;
42614;SDS011;28754;47.700;7.924;2022-09-01T00:46:52;7.30;;;5.13;;
42614;SDS011;28754;47.700;7.924;2022-09-01T00:49:45;8.13;;;5.22;;
42614;SDS011;28754;47.700;7.924;2022-09-01T00:52:38;6.82;;;4.78;;
42614;SDS011;28754;47.700;7.924;2022-09-01T00:55:36;6.70;;;4.63;;
42614;SDS011;28754;47.700;7.924;2022-09-01T00:58:24;7.97;;;5.30;;
42614;SDS011;28754;47.700;7.924;2022-09-01T01:01:11;7.97;;;5.07;;
42614;SDS011;28754;47.700;7.924;2022-09-01T01:03:59;8.70;;;5.97;;
42614;SDS011;28754;47.700;7.924;2022-09-01T01:06:48;7.60;;;5.22;;
42614;SDS011;28754;47.700;7.924;2022-09-01T01:09:46;6.38;;;4.90;;
42614;SDS011;28754;47.700;7.924;2022-09-01T01:12:50;11.88;;;5.35;;
42614;SDS011;28754;47.700;7.924;2022-09-01T01:15:37;7.95;;;6.30;;
42614;SDS011;28754;47.700;7.924;2022-09-01T01:18:28;7.43;;;4.97;;
42614;SDS011;28754;47.700;7.924;2022-09-01T01:21:22;7.15;;;5.70;;
42614;SDS011;28754;47.700;7.924;2022-09-01T01:24:36;10.32;;;6.20;;
42614;SDS011;28754;47.700;7.924;2022-09-01T01:27:23;5.65;;;4.70;;
42614;SDS011;28754;47.700;7.924;2022-09-01T01:30:15;8.68;;;6.10;;
42614;SDS011;28754;47.700;7.924;2022-09-01T01:33:06;11.65;;;6.15;;
42614;SDS011;28754;47.700;7.924;2022-09-01T01:35:53;10.10;;;6.32;;
42614;SDS011;28754;47.700;7.924;2022-09-01T01:38:45;11.20;;;6.65;;
42614;SDS011;28754;47.700;7.924;2022-09-01T01:41:36;7.82;;;6.50;;
42614;SDS011;28754;47.700;7.924;2022-09-01T01:44:28;8.77;;;6.30;;
42614;SDS011;28754;47.700;7.924;2022-09-01T01:47:19;9.10;;;7.10;;
42614;SDS011;28754;47.700;7.924;2022-09-01T01:50:07;11.82;;;6.88;;
42614;SDS011;28754;47.700;7.924;2022-09-01T01:52:55;10.77;;;6.57;;
42614;SDS011;28754;47.700;7.924;2022-09-01T01:55:46;8.02;;;5.68;;
42614;SDS011;28754;47.700;7.924;2022-09-01T01:58:35;10.18;;;6.28;;
42614;SDS011;28754;47.700;7.924;2022-09-01T02:01:27;10.90;;;6.90;;
42614;SDS011;28754;47.700;7.924;2022-09-01T02:04:17;10.82;;;6.13;;
42614;SDS011;28754;47.700;7.924;2022-09-01T02:07:09;7.97;;;5.38;;
42614;SDS011;28754;47.700;7.924;2022-09-01T02:09:58;7.90;;;5.72;;
42614;SDS011;28754;47.700;7.924;2022-09-01T02:12:46;8.93;;;6.53;;
42614;SDS011;28754;47.700;7.924;2022-09-01T02:15:35;8.52;;;7.40;;
42614;SDS011;28754;47.700;7.924;2022-09-01T02:18:33;9.35;;;6.65;;
42614;SDS011;28754;47.700;7.924;2022-09-01T02:24:12;9.23;;;6.97;;
42614;SDS011;28754;47.700;7.924;2022-09-01T02:27:00;9.15;;;6.40;;
42614;SDS011;28754;47.700;7.924;2022-09-01T02:29:49;8.75;;;6.68;;
42614;SDS011;28754;47.700;7.924;2022-09-01T02:32:39;7.75;;;6.20;;
42614;SDS011;28754;47.700;7.924;2022-09-01T02:35:26;9.63;;;6.45;;
42614;SDS011;28754;47.700;7.924;2022-09-01T02:38:17;10.60;;;5.60;;
42614;SDS011;28754;47.700;7.924;2022-09-01T02:41:06;8.30;;;5.68;;
42614;SDS011;28754;47.700;7.924;2022-09-01T02:43:52;11.23;;;6.30;;
42614;SDS011;28754;47.700;7.924;2022-09-01T02:46:40;7.75;;;5.95;;
42614;SDS011;28754;47.700;7.924;2022-09-01T02:49:28;8.35;;;5.82;;
42614;SDS011;28754;47.700;7.924;2022-09-01T02:52:16;11.32;;;6.57;;
42614;SDS011;28754;47.700;7.924;2022-09-01T02:55:06;11.07;;;6.07;;
42614;SDS011;28754;47.700;7.924;2022-09-01T02:57:54;8.93;;;6.50;;
42614;SDS011;28754;47.700;7.924;2022-09-01T03:00:42;9.95;;;6.13;;
42614;SDS011;28754;47.700;7.924;2022-09-01T03:03:29;7.47;;;5.95;;
42614;SDS011;28754;47.700;7.924;2022-09-01T03:06:16;8.45;;;6.00;;
42614;SDS011;28754;47.700;7.924;2022-09-01T03:09:07;9.40;;;5.97;;
42614;SDS011;28754;47.700;7.924;2022-09-01T03:11:59;5.97;;;5.38;;
42614;SDS011;28754;47.700;7.924;2022-09-01T03:14:46;7.13;;;5.30;;
42614;SDS011;28754;47.700;7.924;2022-09-01T03:17:33;8.80;;;5.72;;
42614;SDS011;28754;47.700;7.924;2022-09-01T03:20:20;5.35;;;4.28;;
42614;SDS011;28754;47.700;7.924;2022-09-01T03:23:06;7.90;;;4.97;;
42614;SDS011;28754;47.700;7.924;2022-09-01T03:26:00;6.82;;;5.10;;
42614;SDS011;28754;47.700;7.924;2022-09-01T03:28:48;9.48;;;5.45;;
42614;SDS011;28754;47.700;7.924;2022-09-01T03:31:37;6.90;;;4.97;;
42614;SDS011;28754;47.700;7.924;2022-09-01T03:34:24;7.95;;;5.00;;
42614;SDS011;28754;47.700;7.924;2022-09-01T03:37:13;6.25;;;4.25;;
42614;SDS011;28754;47.700;7.924;2022-09-01T03:40:00;5.72;;;3.90;;
42614;SDS011;28754;47.700;7.924;2022-09-01T03:42:52;7.30;;;4.10;;
42614;SDS011;28754;47.700;7.924;2022-09-01T03:45:40;5.97;;;4.60;;
42614;SDS011;28754;47.700;7.924;2022-09-01T03:48:29;4.55;;;3.38;;
42614;SDS011;28754;47.700;7.924;2022-09-01T03:51:17;6.82;;;3.40;;
42614;SDS011;28754;47.700;7.924;2022-09-01T03:54:08;3.85;;;3.10;;
42614;SDS011;28754;47.700;7.924;2022-09-01T03:56:55;5.03;;;3.35;;
42614;SDS011;28754;47.700;7.924;2022-09-01T03:59:45;3.97;;;2.92;;
42614;SDS011;28754;47.700;7.924;2022-09-01T04:02:32;3.22;;;2.70;;
42614;SDS011;28754;47.700;7.924;2022-09-01T04:05:19;5.05;;;2.38;;
42614;SDS011;28754;47.700;7.924;2022-09-01T04:08:08;5.18;;;2.17;;
42614;SDS011;28754;47.700;7.924;2022-09-01T04:10:59;3.55;;;2.40;;
42614;SDS011;28754;47.700;7.924;2022-09-01T04:13:55;3.22;;;1.92;;
42614;SDS011;28754;47.700;7.924;2022-09-01T04:16:42;6.40;;;2.22;;
42614;SDS011;28754;47.700;7.924;2022-09-01T04:19:47;4.93;;;1.95;;
42614;SDS011;28754;47.700;7.924;2022-09-01T04:22:34;2.78;;;2.47;;
42614;SDS011;28754;47.700;7.924;2022-09-01T04:25:22;2.92;;;2.20;;
42614;SDS011;28754;47.700;7.924;2022-09-01T04:28:10;2.55;;;1.65;;
42614;SDS011;28754;47.700;7.924;2022-09-01T04:31:08;3.38;;;2.28;;
42614;SDS011;28754;47.700;7.924;2022-09-01T04:34:02;2.47;;;1.90;;
42614;SDS011;28754;47.700;7.924;2022-09-01T04:37:00;4.55;;;2.28;;
42614;SDS011;28754;47.700;7.924;2022-09-01T04:39:55;3.80;;;2.42;;
42614;SDS011;28754;47.700;7.924;2022-09-01T04:42:42;4.15;;;2.60;;
42614;SDS011;28754;47.700;7.924;2022-09-01T04:45:31;4.18;;;2.58;;
42614;SDS011;28754;47.700;7.924;2022-09-01T04:48:21;5.72;;;2.28;;
42614;SDS011;28754;47.700;7.924;2022-09-01T04:51:08;5.55;;;2.70;;
42614;SDS011;28754;47.700;7.924;2022-09-01T04:54:10;2.80;;;1.92;;
42614;SDS011;28754;47.700;7.924;2022-09-01T04:57:00;3.10;;;2.33;;
42614;SDS011;28754;47.700;7.924;2022-09-01T04:59:48;3.85;;;2.65;;
42614;SDS011;28754;47.700;7.924;2022-09-01T05:02:35;5.25;;;2.90;;
42614;SDS011;28754;47.700;7.924;2022-09-01T05:05:22;4.20;;;2.33;;
42614;SDS011;28754;47.700;7.924;2022-09-01T05:08:14;3.72;;;2.78;;
42614;SDS011;28754;47.700;7.924;2022-09-01T05:11:05;4.30;;;2.40;;
42614;SDS011;28754;47.700;7.924;2022-09-01T05:13:58;4.20;;;2.47;;
42614;SDS011;28754;47.700;7.924;2022-09-01T05:16:45;3.90;;;2.60;;
42614;SDS011;28754;47.700;7.924;2022-09-01T05:19:32;4.10;;;2.25;;
42614;SDS011;28754;47.700;7.924;2022-09-01T05:22:20;4.07;;;2.70;;
42614;SDS011;28754;47.700;7.924;2022-09-01T05:25:18;3.40;;;2.78;;
42614;SDS011;28754;47.700;7.924;2022-09-01T05:28:05;3.95;;;2.83;;
42614;SDS011;28754;47.700;7.924;2022-09-01T05:30:51;8.27;;;2.42;;
42614;SDS011;28754;47.700;7.924;2022-09-01T05:33:39;3.90;;;2.72;;
42614;SDS011;28754;47.700;7.924;2022-09-01T05:36:30;3.58;;;2.45;;
42614;SDS011;28754;47.700;7.924;2022-09-01T05:39:19;3.97;;;2.53;;
42614;SDS011;28754;47.700;7.924;2022-09-01T05:42:06;3.28;;;2.13;;
42614;SDS011;28754;47.700;7.924;2022-09-01T05:44:54;5.85;;;2.80;;
42614;SDS011;28754;47.700;7.924;2022-09-01T05:47:41;2.78;;;2.30;;
42614;SDS011;28754;47.700;7.924;2022-09-01T05:50:29;3.33;;;2.72;;
42614;SDS011;28754;47.700;7.924;2022-09-01T05:53:16;3.15;;;2.05;;
42614;SDS011;28754;47.700;7.924;2022-09-01T05:56:06;3.72;;;2.45;;
42614;SDS011;28754;47.700;7.924;2022-09-01T05:58:54;3.25;;;2.15;;
42614;SDS011;28754;47.700;7.924;2022-09-01T06:01:43;5.38;;;2.28;;
42614;SDS011;28754;47.700;7.924;2022-09-01T06:04:32;4.05;;;2.70;;
42614;SDS011;28754;47.700;7.924;2022-09-01T06:07:22;3.30;;;2.30;;
42614;SDS011;28754;47.700;7.924;2022-09-01T06:10:14;3.38;;;2.15;;
42614;SDS011;28754;47.700;7.924;2022-09-01T06:13:01;3.65;;;2.50;;
42614;SDS011;28754;47.700;7.924;2022-09-01T06:15:50;3.17;;;2.67;;
42614;SDS011;28754;47.700;7.924;2022-09-01T06:18:40;2.88;;;2.28;;
42614;SDS011;28754;47.700;7.924;2022-09-01T06:21:28;3.60;;;2.58;;
42614;SDS011;28754;47.700;7.924;2022-09-01T06:24:15;3.28;;;2.28;;
42614;SDS011;28754;47.700;7.924;2022-09-01T06:27:03;14.23;;;3.22;;
42614;SDS011;28754;47.700;7.924;2022-09-01T06:29:52;2.75;;;2.20;;
42614;SDS011;28754;47.700;7.924;2022-09-01T06:32:40;4.18;;;2.90;;
42614;SDS011;28754;47.700;7.924;2022-09-01T06:35:30;4.93;;;3.03;;
42614;SDS011;28754;47.700;7.924;2022-09-01T06:38:19;3.10;;;2.22;;
42614;SDS011;28754;47.700;7.924;2022-09-01T06:41:07;4.03;;;2.78;;
42614;SDS011;28754;47.700;7.924;2022-09-01T06:43:56;2.60;;;2.15;;
42614;SDS011;28754;47.700;7.924;2022-09-01T06:46:50;3.05;;;2.33;;
42614;SDS011;28754;47.700;7.924;2022-09-01T06:49:37;4.50;;;2.67;;
42614;SDS011;28754;47.700;7.924;2022-09-01T06:52:30;5.60;;;3.35;;
42614;SDS011;28754;47.700;7.924;2022-09-01T06:55:16;3.38;;;2.60;;
42614;SDS011;28754;47.700;7.924;2022-09-01T06:58:04;3.33;;;2.75;;
42614;SDS011;28754;47.700;7.924;2022-09-01T07:00:53;3.50;;;2.65;;
42614;SDS011;28754;47.700;7.924;2022-09-01T07:03:41;3.83;;;2.83;;
42614;SDS011;28754;47.700;7.924;2022-09-01T07:06:35;3.22;;;2.10;;
42614;SDS011;28754;47.700;7.924;2022-09-01T07:09:35;3.90;;;2.58;;
42614;SDS011;28754;47.700;7.924;2022-09-01T07:12:52;3.25;;;2.42;;
42614;SDS011;28754;47.700;7.924;2022-09-01T07:15:42;3.72;;;2.80;;
42614;SDS011;28754;47.700;7.924;2022-09-01T07:18:30;4.13;;;2.60;;
42614;SDS011;28754;47.700;7.924;2022-09-01T07:21:18;3.72;;;2.45;;
42614;SDS011;28754;47.700;7.924;2022-09-01T07:24:08;3.55;;;2.88;;
42614;SDS011;28754;47.700;7.924;2022-09-01T07:26:56;4.05;;;2.72;;
42614;SDS011;28754;47.700;7.924;2022-09-01T07:29:43;5.25;;;2.90;;
42614;SDS011;28754;47.700;7.924;2022-09-01T07:32:30;6.15;;;3.33;;
42614;SDS011;28754;47.700;7.924;2022-09-01T07:35:18;8.00;;;2.92;;
42614;SDS011;28754;47.700;7.924;2022-09-01T07:38:08;4.60;;;3.50;;
42614;SDS011;28754;47.700;7.924;2022-09-01T07:40:57;4.60;;;3.22;;
42614;SDS011;28754;47.700;7.924;2022-09-01T07:44:03;5.47;;;3.63;;
42614;SDS011;28754;47.700;7.924;2022-09-01T07:47:08;4.68;;;2.88;;
42614;SDS011;28754;47.700;7.924;2022-09-01T07:49:56;7.80;;;3.60;;
42614;SDS011;28754;47.700;7.924;2022-09-01T07:52:45;4.28;;;3.08;;
42614;SDS011;28754;47.700;7.924;2022-09-01T07:55:35;5.05;;;2.50;;
42614;SDS011;28754;47.700;7.924;2022-09-01T07:58:27;5.55;;;2.97;;
42614;SDS011;28754;47.700;7.924;2022-09-01T08:01:23;4.32;;;3.33;;
42614;SDS011;28754;47.700;7.924;2022-09-01T08:04:13;4.40;;;3.28;;
42614;SDS011;28754;47.700;7.924;2022-09-01T08:07:02;10.18;;;4.28;;
42614;SDS011;28754;47.700;7.924;2022-09-01T08:09:50;4.70;;;2.72;;
42614;SDS011;28754;47.700;7.924;2022-09-01T08:12:37;3.97;;;2.97;;
42614;SDS011;28754;47.700;7.924;2022-09-01T08:15:24;4.80;;;3.15;;
42614;SDS011;28754;47.700;7.924;2022-09-01T08:18:11;4.40;;;2.90;;
42614;SDS011;28754;47.700;7.924;2022-09-01T08:20:59;3.20;;;2.17;;
42614;SDS011;28754;47.700;7.924;2022-09-01T08:23:55;3.47;;;2.55;;
42614;SDS011;28754;47.700;7.924;2022-09-01T08:26:42;3.78;;;2.80;;
42614;SDS011;28754;47.700;7.924;2022-09-01T08:29:29;2.78;;;2.05;;
42614;SDS011;28754;47.700;7.924;2022-09-01T08:32:16;2.85;;;2.03;;
42614;SDS011;28754;47.700;7.924;2022-09-01T08:35:03;3.53;;;2.30;;
42614;SDS011;28754;47.700;7.924;2022-09-01T08:37:50;3.08;;;2.45;;
42614;SDS011;28754;47.700;7.924;2022-09-01T08:40:37;3.13;;;2.53;;
42614;SDS011;28754;47.700;7.924;2022-09-01T08:43:32;4.38;;;2.80;;
42614;SDS011;28754;47.700;7.924;2022-09-01T08:46:32;3.95;;;3.13;;
42614;SDS011;28754;47.700;7.924;2022-09-01T08:49:24;4.05;;;2.75;;
42614;SDS011;28754;47.700;7.924;2022-09-01T08:52:36;5.07;;;3.03;;
42614;SDS011;28754;47.700;7.924;2022-09-01T08:55:31;2.92;;;1.92;;
42614;SDS011;28754;47.700;7.924;2022-09-01T08:58:32;5.13;;;2.55;;
42614;SDS011;28754;47.700;7.924;2022-09-01T09:04:49;3.92;;;2.50;;
42614;SDS011;28754;47.700;7.924;2022-09-01T09:18:25;5.35;;;3.05;;
42614;SDS011;28754;47.700;7.924;2022-09-01T09:21:52;3.40;;;2.50;;
42614;SDS011;28754;47.700;7.924;2022-09-01T09:27:50;4.57;;;2.40;;
42614;SDS011;28754;47.700;7.924;2022-09-01T09:30:37;3.03;;;2.00;;
42614;SDS011;28754;47.700;7.924;2022-09-01T09:33:45;2.47;;;1.88;;
42614;SDS011;28754;47.700;7.924;2022-09-01T09:36:35;2.65;;;2.20;;
42614;SDS011;28754;47.700;7.924;2022-09-01T09:39:22;15.48;;;6.43;;
42614;SDS011;28754;47.700;7.924;2022-09-01T09:42:09;4.18;;;1.90;;
42614;SDS011;28754;47.700;7.924;2022-09-01T09:44:58;3.70;;;2.97;;
42614;SDS011;28754;47.700;7.924;2022-09-01T09:47:46;3.22;;;1.90;;
42614;SDS011;28754;47.700;7.924;2022-09-01T09:50:39;3.10;;;2.35;;
42614;SDS011;28754;47.700;7.924;2022-09-01T09:53:28;3.88;;;1.90;;
42614;SDS011;28754;47.700;7.924;2022-09-01T09:56:21;3.13;;;1.92;;
42614;SDS011;28754;47.700;7.924;2022-09-01T09:59:15;2.63;;;2.20;;
42614;SDS011;28754;47.700;7.924;2022-09-01T10:02:30;2.60;;;1.80;;
42614;SDS011;28754;47.700;7.924;2022-09-01T10:05:38;2.08;;;1.45;;
42614;SDS011;28754;47.700;7.924;2022-09-01T10:11:26;2.30;;;1.70;;
42614;SDS011;28754;47.700;7.924;2022-09-01T10:14:46;3.30;;;1.70;;
42614;SDS011;28754;47.700;7.924;2022-09-01T10:17:41;5.45;;;1.80;;
42614;SDS011;28754;47.700;7.924;2022-09-01T10:20:30;2.15;;;1.48;;
42614;SDS011;28754;47.700;7.924;2022-09-01T10:23:22;2.05;;;1.38;;
42614;SDS011;28754;47.700;7.924;2022-09-01T10:26:10;2.72;;;1.70;;
42614;SDS011;28754;47.700;7.924;2022-09-01T10:29:14;2.20;;;1.67;;
42614;SDS011;28754;47.700;7.924;2022-09-01T10:32:07;4.18;;;2.50;;
42614;SDS011;28754;47.700;7.924;2022-09-01T10:35:01;2.17;;;1.90;;
42614;SDS011;28754;47.700;7.924;2022-09-01T10:37:50;1.77;;;1.55;;
42614;SDS011;28754;47.700;7.924;2022-09-01T10:40:39;5.38;;;3.30;;
42614;SDS011;28754;47.700;7.924;2022-09-01T10:43:41;4.40;;;1.90;;
42614;SDS011;28754;47.700;7.924;2022-09-01T10:52:51;1.90;;;1.67;;
42614;SDS011;28754;47.700;7.924;2022-09-01T10:58:49;2.78;;;1.88;;
42614;SDS011;28754;47.700;7.924;2022-09-01T11:07:29;2.45;;;1.80;;
42614;SDS011;28754;47.700;7.924;2022-09-01T11:13:34;5.45;;;1.50;;
42614;SDS011;28754;47.700;7.924;2022-09-01T11:16:33;2.33;;;1.45;;
42614;SDS011;28754;47.700;7.924;2022-09-01T11:22:35;2.60;;;1.77;;
42614;SDS011;28754;47.700;7.924;2022-09-01T11:26:42;2.47;;;1.55;;
42614;SDS011;28754;47.700;7.924;2022-09-01T11:28:45;2.55;;;1.55;;
42614;SDS011;28754;47.700;7.924;2022-09-01T11:31:37;2.40;;;2.00;;
42614;SDS011;28754;47.700;7.924;2022-09-01T11:34:28;1.90;;;1.35;;
42614;SDS011;28754;47.700;7.924;2022-09-01T11:37:17;1.52;;;1.40;;
42614;SDS011;28754;47.700;7.924;2022-09-01T11:40:07;2.10;;;1.70;;
42614;SDS011;28754;47.700;7.924;2022-09-01T11:42:55;3.00;;;1.73;;
42614;SDS011;28754;47.700;7.924;2022-09-01T11:48:51;5.43;;;1.73;;
42614;SDS011;28754;47.700;7.924;2022-09-01T11:51:43;1.80;;;1.40;;
42614;SDS011;28754;47.700;7.924;2022-09-01T11:54:37;1.80;;;1.25;;
42614;SDS011;28754;47.700;7.924;2022-09-01T11:57:31;1.70;;;1.38;;
42614;SDS011;28754;47.700;7.924;2022-09-01T12:00:27;2.00;;;1.45;;
42614;SDS011;28754;47.700;7.924;2022-09-01T12:03:19;3.85;;;1.70;;
42614;SDS011;28754;47.700;7.924;2022-09-01T12:06:19;2.10;;;1.30;;
42614;SDS011;28754;47.700;7.924;2022-09-01T12:09:12;1.58;;;1.27;;
42614;SDS011;28754;47.700;7.924;2022-09-01T12:11:58;2.08;;;1.58;;
42614;SDS011;28754;47.700;7.924;2022-09-01T12:14:54;2.25;;;1.23;;
42614;SDS011;28754;47.700;7.924;2022-09-01T12:18:24;1.70;;;1.17;;
42614;SDS011;28754;47.700;7.924;2022-09-01T12:21:27;1.40;;;1.30;;
42614;SDS011;28754;47.700;7.924;2022-09-01T12:24:20;1.43;;;1.30;;
42614;SDS011;28754;47.700;7.924;2022-09-01T12:27:09;1.55;;;1.20;;
42614;SDS011;28754;47.700;7.924;2022-09-01T12:29:57;3.47;;;1.35;;
42614;SDS011;28754;47.700;7.924;2022-09-01T12:32:44;1.65;;;1.55;;
42614;SDS011;28754;47.700;7.924;2022-09-01T12:35:32;2.75;;;1.60;;
42614;SDS011;28754;47.700;7.924;2022-09-01T12:41:21;3.35;;;1.13;;
42614;SDS011;28754;47.700;7.924;2022-09-01T12:53:12;3.53;;;1.10;;
42614;SDS011;28754;47.700;7.924;2022-09-01T12:56:03;1.60;;;1.40;;
42614;SDS011;28754;47.700;7.924;2022-09-01T12:59:13;1.67;;;1.15;;
42614;SDS011;28754;47.700;7.924;2022-09-01T13:02:26;1.65;;;1.42;;
42614;SDS011;28754;47.700;7.924;2022-09-01T13:05:22;1.90;;;1.60;;
42614;SDS011;28754;47.700;7.924;2022-09-01T13:08:16;2.75;;;1.67;;
42614;SDS011;28754;47.700;7.924;2022-09-01T13:11:17;4.57;;;1.75;;
42614;SDS011;28754;47.700;7.924;2022-09-01T13:14:05;1.58;;;1.13;;
42614;SDS011;28754;47.700;7.924;2022-09-01T13:16:53;1.48;;;1.13;;
42614;SDS011;28754;47.700;7.924;2022-09-01T13:19:40;1.55;;;1.40;;
42614;SDS011;28754;47.700;7.924;2022-09-01T13:22:27;2.20;;;1.40;;
42614;SDS011;28754;47.700;7.924;2022-09-01T13:25:15;2.13;;;1.45;;
42614;SDS011;28754;47.700;7.924;2022-09-01T13:28:05;1.38;;;1.15;;
42614;SDS011;28754;47.700;7.924;2022-09-01T13:30:55;1.48;;;1.15;;
42614;SDS011;28754;47.700;7.924;2022-09-01T13:33:45;4.22;;;1.67;;
42614;SDS011;28754;47.700;7.924;2022-09-01T13:36:31;2.00;;;1.50;;
42614;SDS011;28754;47.700;7.924;2022-09-01T13:39:18;2.22;;;1.83;;
42614;SDS011;28754;47.700;7.924;2022-09-01T13:42:05;2.22;;;1.35;;
42614;SDS011;28754;47.700;7.924;2022-09-01T13:44:52;1.27;;;1.00;;
42614;SDS011;28754;47.700;7.924;2022-09-01T13:47:39;6.85;;;1.27;;
42614;SDS011;28754;47.700;7.924;2022-09-01T13:50:27;3.83;;;1.50;;
42614;SDS011;28754;47.700;7.924;2022-09-01T13:53:14;3.13;;;1.50;;
42614;SDS011;28754;47.700;7.924;2022-09-01T13:56:02;2.75;;;1.70;;
42614;SDS011;28754;47.700;7.924;2022-09-01T13:58:49;1.90;;;1.27;;
42614;SDS011;28754;47.700;7.924;2022-09-01T14:01:36;2.22;;;1.50;;
42614;SDS011;28754;47.700;7.924;2022-09-01T14:04:22;3.03;;;1.90;;
42614;SDS011;28754;47.700;7.924;2022-09-01T14:07:09;1.88;;;1.65;;
42614;SDS011;28754;47.700;7.924;2022-09-01T14:09:56;2.33;;;1.60;;
42614;SDS011;28754;47.700;7.924;2022-09-01T14:12:43;2.60;;;1.90;;
42614;SDS011;28754;47.700;7.924;2022-09-01T14:15:31;2.30;;;1.85;;
42614;SDS011;28754;47.700;7.924;2022-09-01T14:18:20;2.67;;;1.40;;
42614;SDS011;28754;47.700;7.924;2022-09-01T14:21:14;2.20;;;1.77;;
42614;SDS011;28754;47.700;7.924;2022-09-01T14:24:01;1.75;;;1.48;;
42614;SDS011;28754;47.700;7.924;2022-09-01T14:26:49;1.88;;;1.50;;
42614;SDS011;28754;47.700;7.924;2022-09-01T14:29:36;2.40;;;1.42;;
42614;SDS011;28754;47.700;7.924;2022-09-01T14:32:22;1.90;;;1.55;;
42614;SDS011;28754;47.700;7.924;2022-09-01T14:35:14;2.42;;;1.30;;
42614;SDS011;28754;47.700;7.924;2022-09-01T14:38:04;2.80;;;2.20;;
42614;SDS011;28754;47.700;7.924;2022-09-01T14:40:53;1.58;;;1.38;;
42614;SDS011;28754;47.700;7.924;2022-09-01T14:43:40;1.90;;;1.48;;
42614;SDS011;28754;47.700;7.924;2022-09-01T14:46:28;1.67;;;1.52;;
42614;SDS011;28754;47.700;7.924;2022-09-01T14:49:19;1.90;;;1.50;;
42614;SDS011;28754;47.700;7.924;2022-09-01T14:52:06;1.88;;;1.50;;
42614;SDS011;28754;47.700;7.924;2022-09-01T14:54:53;1.70;;;1.60;;
42614;SDS011;28754;47.700;7.924;2022-09-01T14:57:40;2.35;;;1.60;;
42614;SDS011;28754;47.700;7.924;2022-09-01T15:00:27;4.75;;;1.40;;
42614;SDS011;28754;47.700;7.924;2022-09-01T15:03:16;1.98;;;1.40;;
42614;SDS011;28754;47.700;7.924;2022-09-01T15:06:03;1.17;;;1.08;;
42614;SDS011;28754;47.700;7.924;2022-09-01T15:08:50;2.80;;;1.40;;
42614;SDS011;28754;47.700;7.924;2022-09-01T15:11:36;1.63;;;1.38;;
42614;SDS011;28754;47.700;7.924;2022-09-01T15:14:23;1.90;;;1.58;;
42614;SDS011;28754;47.700;7.924;2022-09-01T15:17:10;1.65;;;1.23;;
42614;SDS011;28754;47.700;7.924;2022-09-01T15:19:56;2.42;;;1.80;;
42614;SDS011;28754;47.700;7.924;2022-09-01T15:23:04;1.15;;;1.05;;
42614;SDS011;28754;47.700;7.924;2022-09-01T15:25:53;2.40;;;1.45;;
42614;SDS011;28754;47.700;7.924;2022-09-01T15:28:43;2.05;;;1.70;;
42614;SDS011;28754;47.700;7.924;2022-09-01T15:31:31;1.52;;;1.42;;
42614;SDS011;28754;47.700;7.924;2022-09-01T15:34:18;1.60;;;1.42;;
42614;SDS011;28754;47.700;7.924;2022-09-01T15:37:05;1.40;;;1.30;;
42614;SDS011;28754;47.700;7.924;2022-09-01T15:39:52;1.75;;;1.40;;
42614;SDS011;28754;47.700;7.924;2022-09-01T15:42:39;2.53;;;1.48;;
42614;SDS011;28754;47.700;7.924;2022-09-01T15:45:26;1.63;;;1.27;;
42614;SDS011;28754;47.700;7.924;2022-09-01T15:48:14;1.63;;;1.30;;
42614;SDS011;28754;47.700;7.924;2022-09-01T15:54:10;2.22;;;1.73;;
42614;SDS011;28754;47.700;7.924;2022-09-01T15:57:02;1.27;;;1.00;;
42614;SDS011;28754;47.700;7.924;2022-09-01T15:59:51;2.17;;;1.40;;
42614;SDS011;28754;47.700;7.924;2022-09-01T16:02:38;2.15;;;1.40;;
42614;SDS011;28754;47.700;7.924;2022-09-01T16:05:24;2.15;;;1.40;;
42614;SDS011;28754;47.700;7.924;2022-09-01T16:08:12;2.42;;;1.50;;
42614;SDS011;28754;47.700;7.924;2022-09-01T16:10:58;2.10;;;1.67;;
42614;SDS011;28754;47.700;7.924;2022-09-01T16:13:47;2.30;;;1.50;;
42614;SDS011;28754;47.700;7.924;2022-09-01T16:16:51;2.47;;;1.50;;
42614;SDS011;28754;47.700;7.924;2022-09-01T16:20:07;2.20;;;1.52;;
42614;SDS011;28754;47.700;7.924;2022-09-01T16:23:07;1.80;;;1.48;;
42614;SDS011;28754;47.700;7.924;2022-09-01T16:26:06;1.38;;;1.27;;
42614;SDS011;28754;47.700;7.924;2022-09-01T16:28:55;1.55;;;1.38;;
42614;SDS011;28754;47.700;7.924;2022-09-01T16:31:45;1.42;;;1.30;;
42614;SDS011;28754;47.700;7.924;2022-09-01T16:34:40;1.90;;;1.70;;
42614;SDS011;28754;47.700;7.924;2022-09-01T16:43:38;2.30;;;1.80;;
42614;SDS011;28754;47.700;7.924;2022-09-01T16:49:35;2.67;;;2.00;;
42614;SDS011;28754;47.700;7.924;2022-09-01T16:55:58;3.63;;;1.85;;
42614;SDS011;28754;47.700;7.924;2022-09-01T17:06:18;3.67;;;1.90;;
42614;SDS011;28754;47.700;7.924;2022-09-01T17:08:50;2.55;;;1.75;;
42614;SDS011;28754;47.700;7.924;2022-09-01T17:15:36;2.35;;;1.80;;
42614;SDS011;28754;47.700;7.924;2022-09-01T17:18:31;2.30;;;2.00;;
42614;SDS011;28754;47.700;7.924;2022-09-01T17:24:39;2.35;;;1.90;;
42614;SDS011;28754;47.700;7.924;2022-09-01T17:30:38;1.98;;;1.63;;
42614;SDS011;28754;47.700;7.924;2022-09-01T17:47:51;8.65;;;2.28;;
42614;SDS011;28754;47.700;7.924;2022-09-01T17:51:05;5.03;;;2.53;;
42614;SDS011;28754;47.700;7.924;2022-09-01T17:54:36;2.72;;;2.05;;
42614;SDS011;28754;47.700;7.924;2022-09-01T17:57:59;2.60;;;2.22;;
42614;SDS011;28754;47.700;7.924;2022-09-01T18:01:02;2.25;;;1.92;;
42614;SDS011;28754;47.700;7.924;2022-09-01T18:11:20;6.55;;;2.17;;
42614;SDS011;28754;47.700;7.924;2022-09-01T18:14:24;3.35;;;2.92;;
42614;SDS011;28754;47.700;7.924;2022-09-01T18:17:30;3.40;;;2.40;;
42614;SDS011;28754;47.700;7.924;2022-09-01T18:20:22;2.83;;;2.05;;
42614;SDS011;28754;47.700;7.924;2022-09-01T18:23:17;5.47;;;2.55;;
42614;SDS011;28754;47.700;7.924;2022-09-01T18:26:25;2.80;;;2.20;;
42614;SDS011;28754;47.700;7.924;2022-09-01T18:29:28;3.95;;;1.90;;
42614;SDS011;28754;47.700;7.924;2022-09-01T18:35:53;3.83;;;3.10;;
42614;SDS011;28754;47.700;7.924;2022-09-01T18:48:07;3.20;;;2.33;;
42614;SDS011;28754;47.700;7.924;2022-09-01T18:51:39;3.53;;;2.90;;
42614;SDS011;28754;47.700;7.924;2022-09-01T18:57:57;4.53;;;2.42;;
42614;SDS011;28754;47.700;7.924;2022-09-01T19:00:52;2.85;;;2.60;;
42614;SDS011;28754;47.700;7.924;2022-09-01T19:03:52;4.75;;;3.00;;
42614;SDS011;28754;47.700;7.924;2022-09-01T19:07:15;4.20;;;3.03;;
42614;SDS011;28754;47.700;7.924;2022-09-01T19:10:23;3.35;;;2.70;;
42614;SDS011;28754;47.700;7.924;2022-09-01T19:20:26;4.82;;;3.35;;
42614;SDS011;28754;47.700;7.924;2022-09-01T19:25:56;4.53;;;3.25;;
42614;SDS011;28754;47.700;7.924;2022-09-01T19:29:01;5.07;;;3.45;;
42614;SDS011;28754;47.700;7.924;2022-09-01T19:31:56;5.18;;;3.75;;
42614;SDS011;28754;47.700;7.924;2022-09-01T19:34:48;8.05;;;3.83;;
42614;SDS011;28754;47.700;7.924;2022-09-01T19:37:42;3.97;;;3.58;;